Time;durP1;ratioP1;P1;durP2;ratioP2;P2;SDS_P1;SDS_P2;PMS_P1;PMS_P2;Temp;Humidity;BMP_temperature;BMP_pressure;BME280_temperature;BME280_humidity;BME280_pressure;Samples;Min_cycle;Max_cycle;Signal;HPM_P1;HPM_P2
2021/06/29 00:01:30;;;;;;;8.67;6.93;;;;;;;23.21;100.00;99923.39;1770142;79;21446;-64
2021/06/29 00:03:56;;;;;;;9.10;6.43;;;;;;;23.15;100.00;99921.84;1784009;77;22000;-66
2021/06/29 00:06:23;;;;;;;8.33;6.40;;;;;;;23.15;100.00;99927.95;1841796;77;21075;-66
2021/06/29 00:08:49;;;;;;;10.33;6.40;;;;;;;22.97;100.00;99930.69;1836912;77;21807;-65
2021/06/29 00:11:16;;;;;;;7.33;6.03;;;;;;;22.94;100.00;99936.55;1834849;77;21014;-64
2021/06/29 00:13:45;;;;;;;7.90;7.10;;;;;;;22.89;100.00;99931.77;1838977;75;20913;-66
2021/06/29 00:16:12;;;;;;;7.07;6.27;;;;;;;22.87;100.00;99934.69;1842654;77;21490;-65
2021/06/29 00:18:38;;;;;;;7.87;6.03;;;;;;;22.88;100.00;99932.81;1831993;77;21105;-65
2021/06/29 00:21:05;;;;;;;10.50;6.33;;;;;;;22.88;100.00;99932.31;1843588;75;21799;-65
2021/06/29 00:23:37;;;;;;;8.17;6.70;;;;;;;22.83;100.00;99931.77;1824839;77;20910;-65
2021/06/29 00:26:00;;;;;;;7.20;6.50;;;;;;;22.80;100.00;99929.66;1834912;77;21676;-66
2021/06/29 00:28:26;;;;;;;8.00;7.20;;;;;;;22.58;100.00;99927.36;1838387;77;20894;-66
2021/06/29 00:30:53;;;;;;;8.27;6.77;;;;;;;22.58;100.00;99930.55;1829626;77;20958;-66
2021/06/29 00:33:19;;;;;;;7.50;6.40;;;;;;;22.31;100.00;99938.31;1844596;75;21508;-63
2021/06/29 00:35:46;;;;;;;6.73;5.87;;;;;;;22.38;100.00;99936.69;1842043;77;20996;-65
2021/06/29 00:38:12;;;;;;;7.00;6.30;;;;;;;22.42;100.00;99927.66;1834792;77;21044;-67
2021/06/29 00:40:39;;;;;;;8.67;6.77;;;;;;;22.35;100.00;99933.27;1837217;76;21554;-65
2021/06/29 00:43:05;;;;;;;9.87;7.37;;;;;;;22.25;100.00;99935.39;1834067;77;20847;-66
2021/06/29 00:45:34;;;;;;;8.40;6.87;;;;;;;22.26;100.00;99924.23;1830395;77;22580;-66
2021/06/29 00:48:00;;;;;;;7.37;6.63;;;;;;;22.28;100.00;99928.77;1835421;77;20938;-67
2021/06/29 00:50:27;;;;;;;8.57;7.00;;;;;;;22.19;100.00;99931.68;1837913;75;21060;-68
2021/06/29 00:52:53;;;;;;;7.23;6.20;;;;;;;22.32;100.00;99929.81;1834804;77;20957;-67
2021/06/29 00:55:20;;;;;;;8.07;7.00;;;;;;;22.45;100.00;99926.59;1838412;77;20995;-68
2021/06/29 00:57:51;;;;;;;8.93;7.40;;;;;;;22.49;100.00;99926.30;1816453;76;21141;-66
2021/06/29 01:00:16;;;;;;;9.73;6.70;;;;;;;22.30;100.00;99928.73;1848152;77;21024;-69
2021/06/29 01:02:43;;;;;;;10.23;6.93;;;;;;;22.15;100.00;99942.04;1838766;77;21031;-68
2021/06/29 01:05:12;;;;;;;8.07;6.80;;;;;;;22.06;100.00;99936.45;1829641;77;21444;-66
2021/06/29 01:07:40;;;;;;;7.97;7.17;;;;;;;21.98;100.00;99935.66;1819572;78;21554;-68
2021/06/29 01:10:08;;;;;;;13.13;8.27;;;;;;;;;;1825181;76;21139;-67
2021/06/29 01:12:35;;;;;;;8.47;7.67;;;;;;;21.83;100.00;99944.95;1832446;78;22405;-67
2021/06/29 01:15:03;;;;;;;8.23;6.53;;;;;;;21.86;100.00;99935.93;1830257;76;21479;-68
2021/06/29 01:17:30;;;;;;;10.87;6.83;;;;;;;21.85;100.00;99931.66;1825634;78;21263;-68
2021/06/29 01:19:56;;;;;;;8.43;7.30;;;;;;;21.90;100.00;99933.55;1829819;78;21533;-66
2021/06/29 01:22:25;;;;;;;8.80;7.30;;;;;;;21.89;100.00;99935.91;1833146;78;21135;-67
2021/06/29 01:24:58;;;;;;;9.67;6.90;;;;;;;21.76;100.00;99935.13;1820100;77;21475;-65
2021/06/29 01:32:22;;;;;;;8.37;7.33;;;;;;;21.75;100.00;99933.54;1831919;78;21044;-66
2021/06/29 01:34:49;;;;;;;7.77;6.97;;;;;;;21.79;100.00;99934.60;1830691;78;21060;-65
2021/06/29 01:37:17;;;;;;;9.63;6.27;;;;;;;21.88;100.00;99934.33;1810965;77;21279;-66
2021/06/29 01:40:10;;;;;;;8.17;6.67;;;;;;;21.79;100.00;99934.60;1834992;77;20949;-62
2021/06/29 01:42:31;;;;;;;8.90;6.63;;;;;;;21.86;100.00;99933.81;1831211;77;20992;-63
2021/06/29 01:44:58;;;;;;;7.80;6.80;;;;;;;21.97;100.00;99934.08;1821709;77;20926;-65
2021/06/29 01:47:34;;;;;;;8.70;7.90;;;;;;;21.89;100.00;99935.91;1833911;77;21093;-64
2021/06/29 01:49:56;;;;;;;7.37;6.65;;;;;;;21.82;100.00;99934.05;1823318;77;20879;-64
2021/06/29 01:52:22;;;;;;;8.20;6.33;;;;;;;21.84;100.00;99933.27;1832054;76;21055;-65
2021/06/29 01:54:48;;;;;;;7.00;6.30;;;;;;;21.99;100.00;99930.61;1824440;76;20943;-67
2021/06/29 01:57:16;;;;;;;9.50;7.17;;;;;;;21.95;100.00;99928.23;1836849;77;20985;-67
2021/06/29 01:59:47;;;;;;;8.53;7.50;;;;;;;22.00;100.00;99928.21;1825029;77;21129;-66
2021/06/29 02:02:13;;;;;;;8.33;6.93;;;;;;;22.44;100.00;99925.54;1836426;77;22442;-68
2021/06/29 02:04:40;;;;;;;8.60;6.70;;;;;;;22.89;100.00;99925.13;1834039;77;20986;-67
2021/06/29 02:07:07;;;;;;;9.73;6.50;;;;;;;23.17;100.00;99924.47;1806246;77;21033;-68
2021/06/29 02:09:34;;;;;;;7.10;6.40;;;;;;;23.55;100.00;99929.55;1838327;77;21041;-66
2021/06/29 02:12:00;;;;;;;7.70;6.53;;;;;;;23.94;100.00;99924.78;1810250;77;21782;-65
2021/06/29 02:14:26;;;;;;;9.77;6.73;;;;;;;24.33;100.00;99925.20;1811176;77;21563;-65
2021/06/29 02:16:53;;;;;;;6.53;5.93;;;;;;;24.92;100.00;99918.67;1835328;77;20971;-67
2021/06/29 02:19:19;;;;;;;7.90;6.03;;;;;;;25.06;100.00;99917.43;1825474;77;21135;-67
2021/06/29 02:21:46;;;;;;;7.80;6.83;;;;;;;25.57;100.00;99907.91;1837073;77;21407;-66
2021/06/29 02:24:13;;;;;;;8.93;6.00;;;;;;;25.93;100.00;99896.14;1826317;77;21119;-64
2021/06/29 02:26:39;;;;;;;6.63;5.93;;;;;;;26.40;100.00;99901.70;1831423;77;21029;-65
2021/06/29 02:29:06;;;;;;;6.93;6.23;;;;;;;26.61;100.00;99904.78;1831492;77;21123;-65
2021/06/29 02:31:34;;;;;;;7.43;6.00;;;;;;;26.98;100.00;99897.60;1803364;77;20970;-65
2021/06/29 02:34:01;;;;;;;6.43;5.83;;;;;;;27.60;100.00;99890.31;1816739;77;21045;-65
2021/06/29 02:36:27;;;;;;;7.83;6.30;;;;;;;27.97;100.00;99893.71;1832818;76;21154;-64
2021/06/29 02:38:54;;;;;;;7.55;6.08;;;;;;;28.10;100.00;99890.13;1829957;77;20928;-66
2021/06/29 02:41:20;;;;;;;7.22;5.92;;;;;;;28.58;100.00;99886.70;1813097;78;21631;-66
2021/06/29 02:43:49;;;;;;;7.50;6.80;;;;;;;29.01;100.00;99880.63;1771532;79;20944;-66
2021/06/29 02:46:16;;;;;;;7.20;6.10;;;;;;;29.06;100.00;99876.47;1770839;79;20873;-64
2021/06/29 02:48:42;;;;;;;7.60;5.78;;;;;;;29.41;100.00;99881.25;1831624;77;21069;-66
2021/06/29 02:51:09;;;;;;;7.42;6.67;;;;;;;29.85;100.00;99879.84;1841106;76;20879;-68
2021/06/29 02:53:35;;;;;;;6.72;6.12;;;;;;;30.19;100.00;99881.10;1808317;76;21505;-67
2021/06/29 02:56:02;;;;;;;8.00;6.25;;;;;;;30.67;100.00;99877.73;1836191;77;20998;-67
2021/06/29 02:58:29;;;;;;;7.10;6.35;;;;;;;30.89;100.00;99883.40;1817146;77;20841;-67
2021/06/29 03:00:55;;;;;;;7.00;5.72;;;;;;;31.19;100.00;99880.86;1826418;76;21055;-67
2021/06/29 03:03:22;;;;;;;6.80;6.10;;;;;;;31.60;100.00;99881.92;1813364;78;20997;-68
2021/06/29 03:05:48;;;;;;;6.40;5.33;;;;;;;32.20;100.00;99885.05;1819079;78;20933;-68
2021/06/29 03:08:15;;;;;;;8.03;5.83;;;;;;;32.53;98.35;99893.05;1816374;77;20958;-64
2021/06/29 03:10:41;;;;;;;6.35;5.65;;;;;;;32.98;93.59;99892.08;1807637;78;21555;-69
2021/06/29 03:13:08;;;;;;;7.47;5.90;;;;;;;33.52;87.14;99886.81;1820733;78;21120;-69
2021/06/29 03:15:34;;;;;;;6.40;5.80;;;;;;;33.92;79.32;99893.45;1815102;77;20941;-66
2021/06/29 03:18:01;;;;;;;6.05;5.25;;;;;;;34.30;72.21;99893.41;1787748;77;21049;-69
2021/06/29 03:20:28;;;;;;;7.60;5.50;;;;;;;34.53;68.99;99891.64;1758004;80;20911;-67
2021/06/29 03:22:54;;;;;;;6.03;5.35;;;;;;;34.98;64.50;99892.98;1814009;78;21020;-69
2021/06/29 03:25:21;;;;;;;6.53;5.40;;;;;;;35.51;60.61;99892.48;1814960;78;21158;-68
2021/06/29 03:27:47;;;;;;;6.55;5.60;;;;;;;35.88;56.99;99898.17;1815102;78;21005;-68
2021/06/29 03:30:16;;;;;;;5.85;5.25;;;;;;;36.15;55.04;99899.59;1812982;77;21086;-68
2021/06/29 03:32:42;;;;;;;5.92;5.33;;;;;;;36.39;53.97;99899.16;1815350;78;20990;-66
2021/06/29 03:35:10;;;;;;;5.45;4.95;;;;;;;36.80;51.69;99901.30;1810687;78;21083;-64
2021/06/29 03:37:37;;;;;;;5.80;5.15;;;;;;;36.78;51.76;99907.08;1814649;78;21169;-69
2021/06/29 03:40:06;;;;;;;6.17;5.47;;;;;;;37.13;49.74;99906.78;1818736;78;21523;-68
2021/06/29 03:42:33;;;;;;;6.20;5.60;;;;;;;37.35;47.99;99910.49;1816042;78;21040;-67
2021/06/29 03:44:59;;;;;;;6.35;5.33;;;;;;;37.43;46.73;99910.02;1793686;78;21042;-67
2021/06/29 03:47:26;;;;;;;6.10;5.50;;;;;;;37.56;45.85;99905.89;1794223;78;20999;-66
2021/06/29 03:49:52;;;;;;;6.20;5.60;;;;;;;37.54;45.63;99915.56;1793091;79;21118;-68
2021/06/29 03:52:19;;;;;;;6.28;5.62;;;;;;;36.31;49.25;99911.07;1819982;77;20902;-68
2021/06/29 03:54:45;;;;;;;5.97;5.37;;;;;;;37.31;46.99;99914.33;1816813;77;20965;-68
2021/06/29 03:57:12;;;;;;;6.22;5.70;;;;;;;37.66;45.32;99918.03;1820653;77;20973;-67
2021/06/29 03:59:38;;;;;;;5.72;5.00;;;;;;;37.76;44.63;99920.63;1814067;78;21012;-63
2021/06/29 04:02:05;;;;;;;6.25;5.75;;;;;;;38.07;43.40;99913.91;1818123;77;21169;-67
2021/06/29 04:04:31;;;;;;;5.95;5.42;;;;;;;38.18;42.74;99914.78;1823069;77;20923;-67
2021/06/29 04:07:01;;;;;;;7.00;5.80;;;;;;;38.30;42.61;99913.69;1818783;77;21005;-67
2021/06/29 04:09:26;;;;;;;8.03;6.05;;;;;;;38.57;42.30;99917.02;1813068;77;20961;-66
2021/06/29 04:11:53;;;;;;;7.10;6.00;;;;;;;38.78;41.82;99914.38;1817298;78;20990;-68
2021/06/29 04:14:19;;;;;;;6.33;5.45;;;;;;;39.02;41.23;99915.69;1821038;77;21189;-68
2021/06/29 04:16:46;;;;;;;7.47;5.70;;;;;;;39.10;40.81;99916.49;1818071;77;20930;-67
2021/06/29 04:19:12;;;;;;;14.80;6.78;;;;;;;39.29;39.86;99918.13;1810329;77;21542;-63
2021/06/29 04:21:39;;;;;;;6.78;6.17;;;;;;;39.54;39.36;99920.89;1817943;77;20846;-67
2021/06/29 04:24:06;;;;;;;5.80;5.28;;;;;;;39.54;38.50;99915.44;1817483;78;21495;-68
2021/06/29 04:26:34;;;;;;;6.58;5.95;;;;;;;39.49;38.43;99918.55;1817083;78;22049;-67
2021/06/29 04:29:01;;;;;;;5.90;5.40;;;;;;;39.43;38.17;99922.82;1805684;77;20976;-67
2021/06/29 04:31:29;;;;;;;6.35;5.42;;;;;;;39.27;38.13;99922.59;1815870;77;20957;-64
2021/06/29 04:33:56;;;;;;;5.92;5.42;;;;;;;39.21;38.26;99932.30;1817840;78;22299;-66
2021/06/29 04:36:22;;;;;;;6.22;5.58;;;;;;;39.18;38.73;99928.98;1817969;78;21002;-66
2021/06/29 04:38:49;;;;;;;6.60;5.87;;;;;;;39.21;38.73;99926.84;1816815;77;21494;-68
2021/06/29 04:41:16;;;;;;;10.88;6.47;;;;;;;39.45;38.38;99920.50;1814781;78;20921;-68
2021/06/29 04:43:44;;;;;;;6.25;5.65;;;;;;;39.54;38.43;99924.39;1817714;77;20972;-67
2021/06/29 04:46:12;;;;;;;6.47;5.87;;;;;;;40.05;37.99;99926.61;1816795;77;21115;-69
2021/06/29 04:48:39;;;;;;;7.22;5.72;;;;;;;40.27;37.26;99921.91;1818750;77;21012;-67
2021/06/29 04:51:06;;;;;;;5.90;5.37;;;;;;;40.50;36.20;99925.00;1818235;78;20990;-68
2021/06/29 04:53:33;;;;;;;6.03;5.42;;;;;;;40.71;35.57;99924.17;1819418;77;20964;-64
2021/06/29 04:56:00;;;;;;;6.97;5.45;;;;;;;40.73;35.63;99923.20;1813756;78;20977;-67
2021/06/29 04:58:27;;;;;;;7.12;5.97;;;;;;;40.85;35.64;99919.25;1819900;78;21083;-68
2021/06/29 05:00:53;;;;;;;13.50;5.80;;;;;;;41.00;34.99;99919.40;1817097;77;21003;-68
2021/06/29 05:03:20;;;;;;;6.47;5.87;;;;;;;41.12;35.03;99919.53;1781843;79;21057;-68
2021/06/29 05:05:46;;;;;;;6.45;5.85;;;;;;;41.18;34.64;99919.88;1810396;79;20941;-62
2021/06/29 05:08:13;;;;;;;6.37;5.42;;;;;;;41.45;34.17;99924.27;1812384;79;20997;-64
2021/06/29 05:10:39;;;;;;;5.83;5.33;;;;;;;41.20;33.94;99927.11;1810848;79;20977;-64
2021/06/29 05:13:06;;;;;;;6.20;5.60;;;;;;;41.15;34.20;99921.48;1804277;78;21453;-65
2021/06/29 05:15:32;;;;;;;6.35;5.75;;;;;;;41.13;34.16;99926.55;1812524;77;21064;-67
2021/06/29 05:17:59;;;;;;;5.87;5.37;;;;;;;41.41;33.81;99930.31;1811717;78;20914;-67
2021/06/29 05:20:25;;;;;;;6.45;5.00;;;;;;;41.13;34.10;99927.92;1811173;78;21017;-66
2021/06/29 05:22:52;;;;;;;8.13;5.25;;;;;;;40.96;33.33;99934.24;1811116;78;20978;-68
2021/06/29 05:25:19;;;;;;;6.17;5.10;;;;;;;40.03;34.99;99933.80;1802355;78;21046;-69
2021/06/29 05:27:45;;;;;;;5.05;4.55;;;;;;;39.34;36.06;99934.11;1810895;77;21140;-66
2021/06/29 05:30:13;;;;;;;6.95;4.90;;;;;;;38.53;37.54;99942.06;1811304;78;20993;-68
2021/06/29 05:32:40;;;;;;;5.22;4.72;;;;;;;37.86;39.54;99939.00;1810857;78;21453;-68
2021/06/29 05:35:09;;;;;;;5.87;4.67;;;;;;;37.73;40.93;99936.56;1811591;77;21105;-71
2021/06/29 05:37:36;;;;;;;6.92;4.47;;;;;;;38.00;41.02;99930.99;1812105;79;20941;-69
2021/06/29 05:40:04;;;;;;;5.10;4.60;;;;;;;38.37;40.66;99934.19;1805589;78;21111;-68
2021/06/29 05:42:30;;;;;;;4.53;4.12;;;;;;;38.91;40.33;99923.05;1806109;79;22280;-62
2021/06/29 05:44:57;;;;;;;4.75;4.35;;;;;;;39.39;38.73;99928.27;1809609;79;20935;-66
2021/06/29 05:47:23;;;;;;;5.25;4.75;;;;;;;39.75;37.99;99931.09;1812292;77;21629;-69
2021/06/29 05:49:50;;;;;;;6.20;5.70;;;;;;;40.05;37.44;99926.61;1810152;77;20982;-63
2021/06/29 05:52:16;;;;;;;5.22;4.72;;;;;;;40.45;37.19;99918.55;1800179;79;21146;-69
2021/06/29 05:54:44;;;;;;;5.90;5.40;;;;;;;40.75;36.51;99920.84;1811641;79;20926;-63
2021/06/29 05:57:13;;;;;;;6.08;5.47;;;;;;;40.98;35.63;99914.10;1811154;79;20925;-72
2021/06/29 05:59:40;;;;;;;5.80;5.05;;;;;;;40.96;34.81;99917.84;1809812;79;20892;-68
2021/06/29 06:02:08;;;;;;;6.92;4.78;;;;;;;40.28;35.66;99911.97;1811380;77;21035;-70
2021/06/29 06:04:35;;;;;;;6.22;4.03;;;;;;;39.36;36.17;99914.84;1811323;77;21146;-63
2021/06/29 06:07:02;;;;;;;4.40;4.00;;;;;;;38.16;37.87;99917.89;1810299;78;21045;-69
2021/06/29 06:09:28;;;;;;;4.40;3.77;;;;;;;37.46;40.59;99912.77;1812101;77;21040;-70
2021/06/29 06:11:55;;;;;;;5.03;3.40;;;;;;;37.57;41.10;99918.91;1810838;77;20962;-73
2021/06/29 06:14:22;;;;;;;4.17;3.72;;;;;;;37.84;41.05;99912.73;1811990;78;21046;-68
2021/06/29 06:16:48;;;;;;;5.28;3.98;;;;;;;37.95;40.77;99914.99;1811242;78;21147;-65
2021/06/29 06:19:15;;;;;;;5.45;4.20;;;;;;;37.41;41.32;99909.59;1811395;77;20875;-72
2021/06/29 06:21:42;;;;;;;5.15;3.70;;;;;;;36.69;42.86;99907.95;1811495;78;21585;-68
2021/06/29 06:24:09;;;;;;;6.12;3.70;;;;;;;36.22;45.59;99905.91;1776635;79;20911;-65
2021/06/29 06:26:36;;;;;;;4.92;3.75;;;;;;;36.04;45.84;99907.55;1811478;77;21561;-70
2021/06/29 06:29:02;;;;;;;5.15;3.90;;;;;;;35.16;47.35;99912.88;1811085;77;21309;-69
2021/06/29 06:31:29;;;;;;;5.20;4.70;;;;;;;34.55;50.73;99915.09;1811808;78;22099;-70
2021/06/29 06:33:56;;;;;;;5.75;4.30;;;;;;;34.29;55.29;99910.78;1811332;77;21476;-69
2021/06/29 06:36:22;;;;;;;4.85;3.92;;;;;;;35.00;56.04;99913.73;1811765;77;21097;-66
2021/06/29 06:38:49;;;;;;;5.37;3.80;;;;;;;35.96;49.18;99904.49;1810720;77;21053;-64
2021/06/29 06:41:15;;;;;;;4.60;3.77;;;;;;;36.35;45.90;99900.27;1812288;78;21136;-66
2021/06/29 06:43:44;;;;;;;5.87;3.60;;;;;;;36.99;45.14;99894.37;1812100;77;20923;-68
2021/06/29 06:46:11;;;;;;;5.30;3.83;;;;;;;37.84;43.26;99888.25;1782103;79;21010;-67
2021/06/29 06:48:38;;;;;;;4.90;3.80;;;;;;;38.51;41.97;99898.09;1809392;77;20983;-66
2021/06/29 06:51:05;;;;;;;5.80;4.03;;;;;;;38.92;39.87;99891.89;1799344;78;21029;-66
2021/06/29 06:53:32;;;;;;;3.72;3.40;;;;;;;38.92;39.84;99894.63;1811290;77;21124;-67
2021/06/29 06:55:58;;;;;;;4.08;3.15;;;;;;;38.84;39.50;99898.48;1809624;79;20986;-66
2021/06/29 06:58:25;;;;;;;5.08;3.92;;;;;;;38.85;38.76;99889.92;1811588;79;20966;-62
2021/06/29 07:00:53;;;;;;;4.97;3.87;;;;;;;39.05;38.26;99896.41;1811518;78;21045;-62
2021/06/29 07:03:21;;;;;;;4.83;3.83;;;;;;;39.35;37.57;99897.48;1783076;79;21133;-66
2021/06/29 07:05:48;;;;;;;4.45;3.58;;;;;;;39.92;36.90;99898.13;1818269;78;21658;-65
2021/06/29 07:08:14;;;;;;;5.83;3.87;;;;;;;40.07;35.70;99897.72;1795351;78;20976;-67
2021/06/29 07:10:42;;;;;;;4.83;3.17;;;;;;;39.39;35.48;99900.41;1818389;78;21007;-65
2021/06/29 07:13:09;;;;;;;5.42;3.15;;;;;;;39.27;35.80;99903.50;1818022;78;20999;-68
2021/06/29 07:15:36;;;;;;;5.70;3.40;;;;;;;39.20;34.51;99902.68;1818484;78;21095;-68
2021/06/29 07:18:03;;;;;;;3.65;3.25;;;;;;;39.18;36.06;99897.62;1815289;78;21143;-68
2021/06/29 07:20:30;;;;;;;5.80;3.47;;;;;;;38.98;36.61;99902.61;1813166;78;20930;-66
2021/06/29 07:22:56;;;;;;;10.15;4.33;;;;;;;39.27;36.10;99904.09;1812592;77;21465;-64
2021/06/29 07:25:23;;;;;;;3.85;3.45;;;;;;;39.33;35.70;99904.70;1809943;77;21076;-67
2021/06/29 07:27:50;;;;;;;3.85;3.35;;;;;;;39.51;35.13;99906.66;1790884;78;22538;-69
2021/06/29 07:30:18;;;;;;;3.90;3.50;;;;;;;39.55;35.18;99904.72;1803645;78;21064;-71
2021/06/29 07:32:45;;;;;;;4.40;3.27;;;;;;;39.55;34.67;99904.72;1787687;78;21035;-64
2021/06/29 07:35:12;;;;;;;8.33;3.55;;;;;;;39.10;35.05;99910.45;1818836;77;21095;-67
2021/06/29 07:37:39;;;;;;;10.70;3.80;;;;;;;38.99;35.53;99905.55;1813340;77;21002;-65
2021/06/29 07:40:07;;;;;;;6.45;3.08;;;;;;;38.61;35.37;99913.14;1801283;78;21660;-67
2021/06/29 07:42:36;;;;;;;4.35;2.92;;;;;;;38.45;35.36;99907.20;1822090;77;27408;-66
2021/06/29 07:45:07;;;;;;;3.58;2.95;;;;;;;38.63;35.96;99905.36;1833024;77;20962;-67
2021/06/29 07:47:34;;;;;;;12.30;4.50;;;;;;;39.10;35.22;99902.28;1798807;78;21124;-69
2021/06/29 07:50:03;;;;;;;4.47;3.17;;;;;;;39.68;35.76;99907.30;1816288;77;20916;-68
2021/06/29 07:52:29;;;;;;;3.90;2.95;;;;;;;39.94;33.95;99911.59;1814446;77;20976;-68
2021/06/29 07:54:56;;;;;;;3.50;2.80;;;;;;;39.66;33.66;99912.33;1821957;77;21141;-62
2021/06/29 07:57:22;;;;;;;4.70;3.00;;;;;;;39.01;34.48;99910.02;1810696;77;21270;-69
2021/06/29 07:59:49;;;;;;;3.60;3.08;;;;;;;38.36;35.40;99911.63;1812141;78;22355;-69
2021/06/29 08:02:15;;;;;;;3.52;3.00;;;;;;;37.95;35.23;99910.91;1807784;77;21030;-74
2021/06/29 08:04:43;;;;;;;5.55;3.08;;;;;;;37.59;36.22;99916.02;1824334;77;20982;-63
2021/06/29 08:07:11;;;;;;;3.90;3.58;;;;;;;37.79;36.50;99906.28;1819668;78;22674;-72
2021/06/29 08:09:40;;;;;;;5.40;3.08;;;;;;;37.95;36.50;99904.89;1821629;77;21005;-71
2021/06/29 08:12:09;;;;;;;4.17;3.20;;;;;;;37.92;36.77;99907.58;1823459;77;21106;-71
2021/06/29 08:14:36;;;;;;;3.35;2.87;;;;;;;37.65;37.08;99915.09;1767618;79;21018;-76
2021/06/29 08:17:05;;;;;;;5.12;3.55;;;;;;;37.59;35.94;99913.30;1782299;78;20959;-63
2021/06/29 08:19:31;;;;;;;3.42;2.55;;;;;;;37.29;36.84;99907.14;1771231;80;21089;-72
2021/06/29 08:21:58;;;;;;;3.15;2.77;;;;;;;37.54;37.14;99913.62;1764559;79;20998;-68
2021/06/29 08:24:25;;;;;;;5.37;3.15;;;;;;;37.84;37.01;99906.70;1783828;79;20989;-75
2021/06/29 08:26:51;;;;;;;4.00;3.05;;;;;;;37.93;36.21;99910.52;1774999;78;21063;-69
2021/06/29 08:29:19;;;;;;;4.67;3.12;;;;;;;37.92;35.86;99906.22;1767920;78;21157;-71
2021/06/29 08:31:45;;;;;;;3.85;2.80;;;;;;;37.80;35.31;99905.90;1765838;79;21556;-74
2021/06/29 08:34:12;;;;;;;4.50;3.12;;;;;;;37.98;35.83;99908.22;1784504;78;20993;-79
2021/06/29 08:36:41;;;;;;;5.50;4.10;;;;;;;38.47;35.54;99900.80;1783623;80;21011;-78
2021/06/29 08:39:11;;;;;;;21.07;4.75;;;;;;;38.86;35.26;99890.11;1777365;78;20948;-75
2021/06/29 08:41:39;;;;;;;5.28;3.00;;;;;;;39.19;35.04;99892.36;1760865;80;21052;-80
2021/06/29 08:44:06;;;;;;;4.12;3.08;;;;;;;39.45;34.08;99901.41;1767206;80;21364;-79
2021/06/29 08:46:33;;;;;;;2.98;2.50;;;;;;;39.65;33.42;99899.86;1768457;79;21542;-79
2021/06/29 08:49:00;;;;;;;3.37;2.83;;;;;;;40.13;32.38;99889.96;1761406;81;20930;-65
2021/06/29 08:51:27;;;;;;;2.98;2.62;;;;;;;40.56;31.65;99881.67;1768608;81;21044;-78
2021/06/29 08:53:54;;;;;;;5.00;2.80;;;;;;;40.68;31.51;99879.87;1783158;78;20956;-77
2021/06/29 08:56:21;;;;;;;10.35;3.75;;;;;;;40.94;30.59;99890.11;1746158;81;21155;-79
2021/06/29 08:58:49;;;;;;;3.87;3.05;;;;;;;40.12;31.27;99893.84;1744782;81;20832;-67
2021/06/29 09:01:17;;;;;;;7.30;3.00;;;;;;;39.38;31.96;99897.49;1750216;80;21550;-78
2021/06/29 09:03:44;;;;;;;5.65;3.25;;;;;;;39.11;33.28;99892.92;1802021;78;20911;-73
2021/06/29 09:06:10;;;;;;;2.92;2.62;;;;;;;39.02;33.20;99887.63;1815739;77;21070;-82
2021/06/29 09:08:41;;;;;;;3.95;3.30;;;;;;;39.04;33.21;99883.95;1779276;79;21110;-81
2021/06/29 09:11:18;;;;;;;4.87;3.45;;;;;;;39.23;33.55;99886.33;1802930;78;20888;-74
2021/06/29 09:14:08;;;;;;;3.02;2.67;;;;;;;39.45;34.42;99887.77;1803471;77;20923;-81
2021/06/29 09:16:35;;;;;;;3.60;2.80;;;;;;;39.86;31.51;99887.63;1769870;78;21536;-69
2021/06/29 09:19:02;;;;;;;5.75;2.95;;;;;;;39.81;31.54;99879.80;1774381;79;21143;-76
2021/06/29 09:21:35;;;;;;;3.45;2.85;;;;;;;39.44;31.94;99887.00;1819464;77;22188;-75
2021/06/29 09:23:57;;;;;;;4.40;3.00;;;;;;;39.16;32.26;99889.04;1811318;77;21029;-80
2021/06/29 09:26:26;;;;;;;4.50;3.08;;;;;;;38.86;32.46;99882.52;1806072;77;21003;-74
2021/06/29 09:28:56;;;;;;;4.22;3.40;;;;;;;38.42;33.31;99884.83;1793090;77;21032;-67
2021/06/29 09:31:31;;;;;;;4.37;3.05;;;;;;;38.21;34.36;99889.53;1809617;77;21125;-74
2021/06/29 09:34:07;;;;;;;4.92;3.10;;;;;;;38.17;34.42;99884.05;1810067;77;21137;-77
2021/06/29 09:36:37;;;;;;;4.25;2.92;;;;;;;37.94;34.25;99890.31;1811944;77;20927;-64
2021/06/29 09:39:08;;;;;;;4.40;3.33;;;;;;;37.61;34.33;99880.28;1785238;78;21062;-77
2021/06/29 09:41:35;;;;;;;;;;;;;;;37.22;35.43;99885.52;1815881;77;20987;-77
2021/06/29 09:44:08;;;;;;;3.45;3.00;;;;;;;36.96;35.97;99870.66;1782676;78;20104;-65
2021/06/29 09:46:39;;;;;;;3.75;2.67;;;;;;;36.61;36.27;99875.84;1815596;77;22467;-76
2021/06/29 09:49:11;;;;;;;6.12;2.60;;;;;;;36.43;35.98;99875.56;1805191;79;21617;-78
2021/06/29 09:51:39;;;;;;;4.12;2.90;;;;;;;36.03;36.91;99876.16;1806622;77;20954;-75
2021/06/29 09:54:07;;;;;;;7.87;2.80;;;;;;;35.86;38.27;99873.33;1804821;77;20993;-77
2021/06/29 09:56:39;;;;;;;3.05;2.72;;;;;;;36.02;38.84;99871.28;1791187;79;21008;-78
2021/06/29 09:59:15;;;;;;;4.15;2.55;;;;;;;36.41;38.18;99864.30;1799563;77;21071;-77
2021/06/29 10:01:44;;;;;;;5.72;3.05;;;;;;;36.62;38.36;99866.53;1793912;77;20982;-73
2021/06/29 10:04:10;;;;;;;4.72;2.40;;;;;;;37.27;36.67;99869.44;1810895;77;21067;-78
2021/06/29 10:06:39;;;;;;;3.37;3.08;;;;;;;37.58;34.74;99866.07;1810773;77;21055;-77
2021/06/29 10:09:12;;;;;;;5.17;2.60;;;;;;;38.05;33.25;99867.27;1819909;78;20928;-79
2021/06/29 10:11:43;;;;;;;5.22;2.30;;;;;;;38.42;33.18;99848.08;1814492;77;22801;-78
2021/06/29 10:14:14;;;;;;;2.95;2.00;;;;;;;38.65;32.78;99847.78;1815302;77;20977;-77
2021/06/29 10:16:52;;;;;;;3.20;2.20;;;;;;;39.02;32.06;99847.55;1807053;78;20990;-78
2021/06/29 10:22:02;;;;;;;3.85;2.30;;;;;;;38.40;32.01;99837.55;1816306;77;21025;-76
2021/06/29 10:24:36;;;;;;;5.70;3.10;;;;;;;37.90;34.45;99841.30;1808942;77;22286;-76
2021/06/29 10:27:07;;;;;;;2.77;2.20;;;;;;;37.88;34.74;99850.41;1819171;77;21028;-68
2021/06/29 10:29:35;;;;;;;4.70;2.20;;;;;;;38.02;35.22;99855.77;1820305;78;20929;-75
2021/06/29 10:32:10;;;;;;;4.05;2.10;;;;;;;38.27;34.62;99851.27;1805218;77;20941;-74
2021/06/29 10:34:37;;;;;;;2.65;1.87;;;;;;;38.73;33.71;99852.09;1800181;78;21034;-66
2021/06/29 10:37:05;;;;;;;3.62;2.30;;;;;;;39.24;33.14;99837.47;1816401;77;21117;-78
2021/06/29 10:39:33;;;;;;;5.25;2.33;;;;;;;39.80;31.52;99836.55;1812681;78;21041;-78
2021/06/29 10:42:10;;;;;;;3.62;2.00;;;;;;;39.11;31.63;99844.45;1821830;77;21088;-77
2021/06/29 10:44:46;;;;;;;9.98;3.60;;;;;;;38.70;32.28;99846.82;1821778;77;21401;-72
2021/06/29 10:47:29;;;;;;;4.17;2.62;;;;;;;38.11;33.88;99848.84;1814433;77;21128;-78
2021/06/29 10:49:57;;;;;;;4.30;2.72;;;;;;;37.52;35.09;99859.43;1811745;77;21147;-73
2021/06/29 10:52:34;;;;;;;7.05;3.05;;;;;;;36.88;36.83;99855.41;1813353;77;20915;-71
2021/06/29 10:55:19;;;;;;;2.95;2.60;;;;;;;36.66;37.37;99845.64;1812688;77;21037;-76
2021/06/29 10:57:48;;;;;;;3.02;2.33;;;;;;;36.62;38.17;99843.45;1806418;77;21057;-74
2021/06/29 11:00:26;;;;;;;4.60;2.58;;;;;;;36.86;37.23;99842.77;1813427;77;21013;-73
2021/06/29 11:03:08;;;;;;;5.10;2.80;;;;;;;37.00;36.94;99845.09;1820762;77;21076;-75
2021/06/29 11:05:44;;;;;;;6.12;2.45;;;;;;;36.90;37.09;99851.18;1817141;77;20908;-71
2021/06/29 11:08:13;;;;;;;3.58;2.42;;;;;;;36.54;36.75;99842.58;1833710;77;20924;-72
2021/06/29 11:10:47;;;;;;;3.75;2.50;;;;;;;36.28;39.15;99835.80;1796646;78;21426;-73
2021/06/29 11:13:14;;;;;;;4.10;2.60;;;;;;;36.42;38.31;99842.02;1794860;78;20997;-77
2021/06/29 11:15:45;;;;;;;7.15;2.60;;;;;;;36.67;38.63;99841.79;1810107;78;22029;-64
2021/06/29 11:18:11;;;;;;;3.62;2.65;;;;;;;36.97;37.12;99832.25;1829608;77;21395;-68
2021/06/29 11:20:52;;;;;;;2.62;2.27;;;;;;;37.59;35.74;99834.44;1780407;78;21117;-80
2021/06/29 11:23:28;;;;;;;5.20;2.75;;;;;;;37.83;36.24;99835.78;1782166;78;21039;-76
2021/06/29 11:26:15;;;;;;;3.90;2.77;;;;;;;38.27;34.72;99824.05;1813254;78;21138;-63
2021/06/29 11:28:49;;;;;;;3.47;2.80;;;;;;;37.85;34.76;99837.55;1812737;77;21119;-73
2021/06/29 11:31:31;;;;;;;2.95;2.33;;;;;;;37.26;36.68;99842.84;1815562;77;20956;-74
2021/06/29 11:34:06;;;;;;;;;;;;;;;37.33;36.51;99834.56;1797680;78;21049;-73
2021/06/29 11:36:37;;;;;;;2.98;2.37;;;;;;;37.57;35.60;99829.16;1813799;78;20205;-65
2021/06/29 11:39:22;;;;;;;2.72;2.17;;;;;;;37.74;33.79;99823.88;1784241;79;21149;-72
2021/06/29 11:42:06;;;;;;;2.72;2.25;;;;;;;37.78;31.92;99818.45;1817420;78;21138;-79
2021/06/29 11:44:38;;;;;;;2.72;2.27;;;;;;;37.85;32.68;99819.88;1830702;77;20993;-74